sensor_id;sensor_type;location;lat;lon;timestamp;P1;durP1;ratioP1;P2;durP2;ratioP2
49784;SDS011;35679;38.732;-121.358;2023-05-27T00:02:29;4.32;;;4.03;;
49784;SDS011;35679;38.732;-121.358;2023-05-27T00:05:19;4.07;;;3.80;;
49784;SDS011;35679;38.732;-121.358;2023-05-27T00:08:08;4.90;;;4.50;;
49784;SDS011;35679;38.732;-121.358;2023-05-27T00:10:58;4.90;;;4.50;;
49784;SDS011;35679;38.732;-121.358;2023-05-27T00:13:47;5.03;;;4.63;;
49784;SDS011;35679;38.732;-121.358;2023-05-27T00:16:37;4.93;;;4.60;;
49784;SDS011;35679;38.732;-121.358;2023-05-27T00:19:26;5.05;;;4.60;;
49784;SDS011;35679;38.732;-121.358;2023-05-27T00:22:17;5.03;;;4.70;;
49784;SDS011;35679;38.732;-121.358;2023-05-27T00:25:07;4.78;;;4.47;;
49784;SDS011;35679;38.732;-121.358;2023-05-27T00:27:57;4.85;;;4.55;;
49784;SDS011;35679;38.732;-121.358;2023-05-27T00:30:48;4.75;;;4.28;;
49784;SDS011;35679;38.732;-121.358;2023-05-27T00:33:37;4.70;;;4.30;;
49784;SDS011;35679;38.732;-121.358;2023-05-27T00:36:27;4.70;;;4.40;;
49784;SDS011;35679;38.732;-121.358;2023-05-27T00:39:20;4.40;;;4.10;;
49784;SDS011;35679;38.732;-121.358;2023-05-27T00:42:09;4.70;;;4.25;;
49784;SDS011;35679;38.732;-121.358;2023-05-27T00:45:00;4.70;;;4.40;;
49784;SDS011;35679;38.732;-121.358;2023-05-27T00:47:49;4.32;;;4.03;;
49784;SDS011;35679;38.732;-121.358;2023-05-27T00:50:39;4.60;;;4.20;;
49784;SDS011;35679;38.732;-121.358;2023-05-27T00:53:28;4.00;;;3.70;;
49784;SDS011;35679;38.732;-121.358;2023-05-27T00:56:24;4.05;;;3.85;;
49784;SDS011;35679;38.732;-121.358;2023-05-27T00:59:13;4.22;;;3.95;;
49784;SDS011;35679;38.732;-121.358;2023-05-27T01:02:03;4.65;;;4.25;;
49784;SDS011;35679;38.732;-121.358;2023-05-27T01:04:54;4.50;;;4.20;;
49784;SDS011;35679;38.732;-121.358;2023-05-27T01:10:53;4.30;;;4.00;;
49784;SDS011;35679;38.732;-121.358;2023-05-27T01:13:46;4.50;;;4.30;;
49784;SDS011;35679;38.732;-121.358;2023-05-27T01:16:40;5.28;;;4.65;;
49784;SDS011;35679;38.732;-121.358;2023-05-27T01:19:34;5.10;;;4.80;;
49784;SDS011;35679;38.732;-121.358;2023-05-27T01:22:27;4.95;;;4.70;;
49784;SDS011;35679;38.732;-121.358;2023-05-27T01:25:18;5.45;;;5.15;;
49784;SDS011;35679;38.732;-121.358;2023-05-27T01:28:08;5.05;;;4.80;;
49784;SDS011;35679;38.732;-121.358;2023-05-27T01:31:01;4.10;;;3.80;;
49784;SDS011;35679;38.732;-121.358;2023-05-27T01:33:58;4.40;;;4.00;;
49784;SDS011;35679;38.732;-121.358;2023-05-27T01:36:56;4.30;;;4.00;;
49784;SDS011;35679;38.732;-121.358;2023-05-27T01:39:51;3.92;;;3.63;;
49784;SDS011;35679;38.732;-121.358;2023-05-27T01:42:41;3.78;;;3.58;;
49784;SDS011;35679;38.732;-121.358;2023-05-27T01:45:33;3.85;;;3.55;;
49784;SDS011;35679;38.732;-121.358;2023-05-27T01:48:22;4.50;;;4.10;;
49784;SDS011;35679;38.732;-121.358;2023-05-27T01:51:12;4.40;;;4.15;;
49784;SDS011;35679;38.732;-121.358;2023-05-27T01:54:02;4.50;;;4.20;;
49784;SDS011;35679;38.732;-121.358;2023-05-27T01:56:52;4.38;;;4.10;;
49784;SDS011;35679;38.732;-121.358;2023-05-27T01:59:41;4.55;;;4.15;;
49784;SDS011;35679;38.732;-121.358;2023-05-27T02:02:31;4.60;;;4.30;;
49784;SDS011;35679;38.732;-121.358;2023-05-27T02:05:20;4.38;;;4.18;;
49784;SDS011;35679;38.732;-121.358;2023-05-27T02:08:10;3.25;;;3.15;;
49784;SDS011;35679;38.732;-121.358;2023-05-27T02:11:00;3.00;;;2.80;;
49784;SDS011;35679;38.732;-121.358;2023-05-27T02:13:50;3.10;;;2.90;;
49784;SDS011;35679;38.732;-121.358;2023-05-27T02:16:41;2.90;;;2.70;;
49784;SDS011;35679;38.732;-121.358;2023-05-27T02:19:30;2.78;;;2.58;;
49784;SDS011;35679;38.732;-121.358;2023-05-27T02:22:21;3.08;;;2.88;;
49784;SDS011;35679;38.732;-121.358;2023-05-27T02:25:11;3.03;;;2.83;;
49784;SDS011;35679;38.732;-121.358;2023-05-27T02:28:00;3.00;;;2.80;;
49784;SDS011;35679;38.732;-121.358;2023-05-27T02:30:51;2.97;;;2.78;;
49784;SDS011;35679;38.732;-121.358;2023-05-27T02:33:40;2.78;;;2.63;;
49784;SDS011;35679;38.732;-121.358;2023-05-27T02:36:30;3.00;;;2.80;;
49784;SDS011;35679;38.732;-121.358;2023-05-27T02:39:19;2.92;;;2.72;;
49784;SDS011;35679;38.732;-121.358;2023-05-27T02:42:10;2.83;;;2.63;;
49784;SDS011;35679;38.732;-121.358;2023-05-27T02:45:00;2.95;;;2.75;;
49784;SDS011;35679;38.732;-121.358;2023-05-27T02:47:49;3.25;;;3.05;;
49784;SDS011;35679;38.732;-121.358;2023-05-27T02:50:39;2.80;;;2.65;;
49784;SDS011;35679;38.732;-121.358;2023-05-27T02:53:29;3.10;;;2.90;;
49784;SDS011;35679;38.732;-121.358;2023-05-27T02:56:18;2.78;;;2.58;;
49784;SDS011;35679;38.732;-121.358;2023-05-27T02:59:08;3.17;;;2.88;;
49784;SDS011;35679;38.732;-121.358;2023-05-27T03:01:59;3.15;;;2.95;;
49784;SDS011;35679;38.732;-121.358;2023-05-27T03:04:48;2.95;;;2.80;;
49784;SDS011;35679;38.732;-121.358;2023-05-27T03:07:38;2.78;;;2.67;;
49784;SDS011;35679;38.732;-121.358;2023-05-27T03:10:29;3.43;;;2.80;;
49784;SDS011;35679;38.732;-121.358;2023-05-27T03:13:19;3.38;;;3.20;;
49784;SDS011;35679;38.732;-121.358;2023-05-27T03:16:08;3.20;;;2.90;;
49784;SDS011;35679;38.732;-121.358;2023-05-27T03:18:59;3.08;;;2.88;;
49784;SDS011;35679;38.732;-121.358;2023-05-27T03:21:49;3.22;;;3.03;;
49784;SDS011;35679;38.732;-121.358;2023-05-27T03:24:40;3.20;;;3.10;;
49784;SDS011;35679;38.732;-121.358;2023-05-27T03:27:30;3.42;;;3.13;;
49784;SDS011;35679;38.732;-121.358;2023-05-27T03:30:21;3.53;;;2.90;;
49784;SDS011;35679;38.732;-121.358;2023-05-27T03:33:13;3.00;;;2.80;;
49784;SDS011;35679;38.732;-121.358;2023-05-27T03:36:03;2.85;;;2.75;;
49784;SDS011;35679;38.732;-121.358;2023-05-27T03:38:53;3.50;;;2.85;;
49784;SDS011;35679;38.732;-121.358;2023-05-27T03:41:44;2.90;;;2.80;;
49784;SDS011;35679;38.732;-121.358;2023-05-27T03:44:34;2.88;;;2.60;;
49784;SDS011;35679;38.732;-121.358;2023-05-27T03:47:24;3.08;;;2.88;;
49784;SDS011;35679;38.732;-121.358;2023-05-27T03:50:13;3.10;;;2.80;;
49784;SDS011;35679;38.732;-121.358;2023-05-27T03:53:02;2.72;;;2.53;;
49784;SDS011;35679;38.732;-121.358;2023-05-27T03:55:52;8.13;;;3.00;;
49784;SDS011;35679;38.732;-121.358;2023-05-27T03:58:42;3.00;;;2.80;;
49784;SDS011;35679;38.732;-121.358;2023-05-27T04:01:33;3.20;;;2.90;;
49784;SDS011;35679;38.732;-121.358;2023-05-27T04:04:22;3.35;;;3.05;;
49784;SDS011;35679;38.732;-121.358;2023-05-27T04:07:12;3.47;;;3.17;;
49784;SDS011;35679;38.732;-121.358;2023-05-27T04:10:02;3.20;;;2.90;;
49784;SDS011;35679;38.732;-121.358;2023-05-27T04:12:52;2.92;;;2.72;;
49784;SDS011;35679;38.732;-121.358;2023-05-27T04:15:41;3.03;;;2.83;;
49784;SDS011;35679;38.732;-121.358;2023-05-27T04:18:31;2.95;;;2.75;;
49784;SDS011;35679;38.732;-121.358;2023-05-27T04:21:20;3.10;;;2.85;;
49784;SDS011;35679;38.732;-121.358;2023-05-27T04:24:10;3.03;;;2.90;;
49784;SDS011;35679;38.732;-121.358;2023-05-27T04:26:59;3.45;;;2.90;;
49784;SDS011;35679;38.732;-121.358;2023-05-27T04:29:51;3.15;;;2.90;;
49784;SDS011;35679;38.732;-121.358;2023-05-27T04:32:40;2.70;;;2.60;;
49784;SDS011;35679;38.732;-121.358;2023-05-27T04:35:29;2.80;;;2.70;;
49784;SDS011;35679;38.732;-121.358;2023-05-27T04:38:22;2.92;;;2.83;;
49784;SDS011;35679;38.732;-121.358;2023-05-27T04:41:15;2.80;;;2.60;;
49784;SDS011;35679;38.732;-121.358;2023-05-27T04:44:36;2.97;;;2.80;;
49784;SDS011;35679;38.732;-121.358;2023-05-27T04:47:26;2.97;;;2.78;;
49784;SDS011;35679;38.732;-121.358;2023-05-27T04:50:17;2.70;;;2.50;;
49784;SDS011;35679;38.732;-121.358;2023-05-27T04:53:07;2.78;;;2.67;;
49784;SDS011;35679;38.732;-121.358;2023-05-27T04:55:56;2.88;;;2.67;;
49784;SDS011;35679;38.732;-121.358;2023-05-27T04:58:47;2.88;;;2.72;;
49784;SDS011;35679;38.732;-121.358;2023-05-27T05:01:42;2.60;;;2.50;;
49784;SDS011;35679;38.732;-121.358;2023-05-27T05:05:09;2.80;;;2.65;;
49784;SDS011;35679;38.732;-121.358;2023-05-27T05:07:59;2.88;;;2.78;;
49784;SDS011;35679;38.732;-121.358;2023-05-27T05:10:50;3.10;;;2.90;;
49784;SDS011;35679;38.732;-121.358;2023-05-27T05:13:40;3.10;;;2.90;;
49784;SDS011;35679;38.732;-121.358;2023-05-27T05:16:30;3.10;;;2.90;;
49784;SDS011;35679;38.732;-121.358;2023-05-27T05:19:19;3.00;;;2.90;;
49784;SDS011;35679;38.732;-121.358;2023-05-27T05:22:09;3.00;;;2.80;;
49784;SDS011;35679;38.732;-121.358;2023-05-27T05:24:59;3.40;;;3.10;;
49784;SDS011;35679;38.732;-121.358;2023-05-27T05:27:53;3.20;;;3.00;;
49784;SDS011;35679;38.732;-121.358;2023-05-27T05:30:43;3.28;;;3.08;;
49784;SDS011;35679;38.732;-121.358;2023-05-27T05:33:35;2.88;;;2.78;;
49784;SDS011;35679;38.732;-121.358;2023-05-27T05:36:26;3.17;;;2.97;;
49784;SDS011;35679;38.732;-121.358;2023-05-27T05:39:19;3.30;;;3.10;;
49784;SDS011;35679;38.732;-121.358;2023-05-27T05:42:12;2.95;;;2.75;;
49784;SDS011;35679;38.732;-121.358;2023-05-27T05:45:03;2.85;;;2.75;;
49784;SDS011;35679;38.732;-121.358;2023-05-27T05:47:54;2.92;;;2.78;;
49784;SDS011;35679;38.732;-121.358;2023-05-27T05:50:46;3.13;;;2.92;;
49784;SDS011;35679;38.732;-121.358;2023-05-27T05:53:37;3.00;;;2.80;;
49784;SDS011;35679;38.732;-121.358;2023-05-27T05:56:26;2.90;;;2.80;;
49784;SDS011;35679;38.732;-121.358;2023-05-27T05:59:16;2.90;;;2.80;;
49784;SDS011;35679;38.732;-121.358;2023-05-27T06:02:06;3.00;;;2.80;;
49784;SDS011;35679;38.732;-121.358;2023-05-27T06:04:56;3.40;;;3.20;;
49784;SDS011;35679;38.732;-121.358;2023-05-27T06:07:46;3.22;;;3.00;;
49784;SDS011;35679;38.732;-121.358;2023-05-27T06:10:35;3.00;;;2.90;;
49784;SDS011;35679;38.732;-121.358;2023-05-27T06:13:25;3.00;;;2.90;;
49784;SDS011;35679;38.732;-121.358;2023-05-27T06:16:17;2.60;;;2.50;;
49784;SDS011;35679;38.732;-121.358;2023-05-27T06:19:06;3.00;;;2.80;;
49784;SDS011;35679;38.732;-121.358;2023-05-27T06:21:56;2.47;;;2.38;;
49784;SDS011;35679;38.732;-121.358;2023-05-27T06:24:48;2.60;;;2.50;;
49784;SDS011;35679;38.732;-121.358;2023-05-27T06:27:46;2.80;;;2.70;;
49784;SDS011;35679;38.732;-121.358;2023-05-27T06:30:36;2.47;;;2.38;;
49784;SDS011;35679;38.732;-121.358;2023-05-27T06:33:29;2.90;;;2.80;;
49784;SDS011;35679;38.732;-121.358;2023-05-27T06:36:19;3.17;;;3.00;;
49784;SDS011;35679;38.732;-121.358;2023-05-27T06:39:08;3.13;;;2.80;;
49784;SDS011;35679;38.732;-121.358;2023-05-27T06:41:57;2.88;;;2.78;;
49784;SDS011;35679;38.732;-121.358;2023-05-27T06:45:06;2.95;;;2.85;;
49784;SDS011;35679;38.732;-121.358;2023-05-27T06:47:56;2.60;;;2.50;;
49784;SDS011;35679;38.732;-121.358;2023-05-27T06:50:46;2.78;;;2.67;;
49784;SDS011;35679;38.732;-121.358;2023-05-27T06:53:36;2.92;;;2.83;;
49784;SDS011;35679;38.732;-121.358;2023-05-27T06:56:30;3.10;;;2.90;;
49784;SDS011;35679;38.732;-121.358;2023-05-27T06:59:55;3.13;;;3.00;;
49784;SDS011;35679;38.732;-121.358;2023-05-27T07:02:45;3.13;;;3.00;;
49784;SDS011;35679;38.732;-121.358;2023-05-27T07:05:35;3.13;;;3.03;;
49784;SDS011;35679;38.732;-121.358;2023-05-27T07:08:24;2.88;;;2.70;;
49784;SDS011;35679;38.732;-121.358;2023-05-27T07:11:25;2.80;;;2.70;;
49784;SDS011;35679;38.732;-121.358;2023-05-27T07:14:20;3.50;;;3.30;;
49784;SDS011;35679;38.732;-121.358;2023-05-27T07:17:09;3.35;;;3.15;;
49784;SDS011;35679;38.732;-121.358;2023-05-27T07:19:59;3.00;;;2.90;;
49784;SDS011;35679;38.732;-121.358;2023-05-27T07:22:48;2.97;;;2.85;;
49784;SDS011;35679;38.732;-121.358;2023-05-27T07:25:38;3.15;;;2.95;;
49784;SDS011;35679;38.732;-121.358;2023-05-27T07:28:27;3.10;;;2.90;;
49784;SDS011;35679;38.732;-121.358;2023-05-27T07:31:27;2.90;;;2.80;;
49784;SDS011;35679;38.732;-121.358;2023-05-27T07:34:21;2.78;;;2.67;;
49784;SDS011;35679;38.732;-121.358;2023-05-27T07:37:11;2.80;;;2.70;;
49784;SDS011;35679;38.732;-121.358;2023-05-27T07:40:00;2.90;;;2.70;;
49784;SDS011;35679;38.732;-121.358;2023-05-27T07:42:53;3.03;;;2.90;;
49784;SDS011;35679;38.732;-121.358;2023-05-27T07:45:42;2.80;;;2.70;;
49784;SDS011;35679;38.732;-121.358;2023-05-27T07:48:32;2.80;;;2.70;;
49784;SDS011;35679;38.732;-121.358;2023-05-27T07:51:21;3.55;;;2.80;;
49784;SDS011;35679;38.732;-121.358;2023-05-27T07:54:11;2.60;;;2.50;;
49784;SDS011;35679;38.732;-121.358;2023-05-27T07:57:00;2.80;;;2.70;;
49784;SDS011;35679;38.732;-121.358;2023-05-27T07:59:51;2.80;;;2.70;;
49784;SDS011;35679;38.732;-121.358;2023-05-27T08:02:43;2.70;;;2.60;;
49784;SDS011;35679;38.732;-121.358;2023-05-27T08:05:34;3.20;;;3.00;;
49784;SDS011;35679;38.732;-121.358;2023-05-27T08:08:36;3.00;;;2.83;;
49784;SDS011;35679;38.732;-121.358;2023-05-27T08:12:00;2.60;;;2.50;;
49784;SDS011;35679;38.732;-121.358;2023-05-27T08:15:02;2.80;;;2.60;;
49784;SDS011;35679;38.732;-121.358;2023-05-27T08:18:05;2.92;;;2.80;;
49784;SDS011;35679;38.732;-121.358;2023-05-27T08:21:04;2.80;;;2.70;;
49784;SDS011;35679;38.732;-121.358;2023-05-27T08:24:25;2.95;;;2.85;;
49784;SDS011;35679;38.732;-121.358;2023-05-27T08:27:41;3.25;;;3.05;;
49784;SDS011;35679;38.732;-121.358;2023-05-27T08:30:37;2.63;;;2.53;;
49784;SDS011;35679;38.732;-121.358;2023-05-27T08:33:30;3.00;;;2.90;;
49784;SDS011;35679;38.732;-121.358;2023-05-27T08:36:19;6.75;;;2.80;;
49784;SDS011;35679;38.732;-121.358;2023-05-27T08:39:11;2.75;;;2.65;;
49784;SDS011;35679;38.732;-121.358;2023-05-27T08:42:07;2.90;;;2.80;;
49784;SDS011;35679;38.732;-121.358;2023-05-27T08:44:57;2.80;;;2.70;;
49784;SDS011;35679;38.732;-121.358;2023-05-27T08:47:48;2.80;;;2.70;;
49784;SDS011;35679;38.732;-121.358;2023-05-27T08:50:41;2.92;;;2.72;;
49784;SDS011;35679;38.732;-121.358;2023-05-27T08:53:30;2.90;;;2.70;;
49784;SDS011;35679;38.732;-121.358;2023-05-27T08:56:20;2.90;;;2.80;;
49784;SDS011;35679;38.732;-121.358;2023-05-27T08:59:11;2.72;;;2.63;;
49784;SDS011;35679;38.732;-121.358;2023-05-27T09:02:00;3.13;;;3.03;;
49784;SDS011;35679;38.732;-121.358;2023-05-27T09:04:51;4.90;;;3.00;;
49784;SDS011;35679;38.732;-121.358;2023-05-27T09:07:41;2.90;;;2.80;;
49784;SDS011;35679;38.732;-121.358;2023-05-27T09:10:41;3.25;;;2.95;;
49784;SDS011;35679;38.732;-121.358;2023-05-27T09:13:31;3.25;;;3.05;;
49784;SDS011;35679;38.732;-121.358;2023-05-27T09:16:21;3.10;;;3.00;;
49784;SDS011;35679;38.732;-121.358;2023-05-27T09:19:17;3.38;;;3.28;;
49784;SDS011;35679;38.732;-121.358;2023-05-27T09:22:07;3.08;;;2.83;;
49784;SDS011;35679;38.732;-121.358;2023-05-27T09:24:57;3.75;;;3.55;;
49784;SDS011;35679;38.732;-121.358;2023-05-27T09:27:48;3.03;;;2.92;;
49784;SDS011;35679;38.732;-121.358;2023-05-27T09:30:38;3.60;;;3.40;;
49784;SDS011;35679;38.732;-121.358;2023-05-27T09:33:30;2.90;;;2.80;;
49784;SDS011;35679;38.732;-121.358;2023-05-27T09:36:20;3.22;;;3.03;;
49784;SDS011;35679;38.732;-121.358;2023-05-27T09:39:13;3.22;;;3.00;;
49784;SDS011;35679;38.732;-121.358;2023-05-27T09:42:03;2.90;;;2.80;;
49784;SDS011;35679;38.732;-121.358;2023-05-27T09:44:54;3.20;;;3.10;;
49784;SDS011;35679;38.732;-121.358;2023-05-27T09:47:52;2.90;;;2.70;;
49784;SDS011;35679;38.732;-121.358;2023-05-27T09:50:43;3.38;;;3.17;;
49784;SDS011;35679;38.732;-121.358;2023-05-27T09:53:32;3.25;;;3.05;;
49784;SDS011;35679;38.732;-121.358;2023-05-27T09:56:27;3.40;;;3.20;;
49784;SDS011;35679;38.732;-121.358;2023-05-27T09:59:18;3.17;;;3.08;;
49784;SDS011;35679;38.732;-121.358;2023-05-27T10:02:07;2.92;;;2.83;;
49784;SDS011;35679;38.732;-121.358;2023-05-27T10:05:00;3.00;;;2.80;;
49784;SDS011;35679;38.732;-121.358;2023-05-27T10:07:51;2.97;;;2.88;;
49784;SDS011;35679;38.732;-121.358;2023-05-27T10:10:59;3.65;;;3.45;;
49784;SDS011;35679;38.732;-121.358;2023-05-27T10:13:49;2.90;;;2.80;;
49784;SDS011;35679;38.732;-121.358;2023-05-27T10:16:39;3.70;;;3.50;;
49784;SDS011;35679;38.732;-121.358;2023-05-27T10:22:45;3.27;;;3.07;;
49784;SDS011;35679;38.732;-121.358;2023-05-27T10:25:35;3.33;;;3.13;;
49784;SDS011;35679;38.732;-121.358;2023-05-27T10:28:35;3.30;;;3.20;;
49784;SDS011;35679;38.732;-121.358;2023-05-27T10:31:28;3.58;;;3.40;;
49784;SDS011;35679;38.732;-121.358;2023-05-27T10:34:19;3.25;;;3.05;;
49784;SDS011;35679;38.732;-121.358;2023-05-27T10:37:08;3.22;;;3.13;;
49784;SDS011;35679;38.732;-121.358;2023-05-27T10:39:59;3.50;;;3.30;;
49784;SDS011;35679;38.732;-121.358;2023-05-27T10:42:58;3.20;;;3.10;;
49784;SDS011;35679;38.732;-121.358;2023-05-27T10:45:49;3.65;;;3.40;;
49784;SDS011;35679;38.732;-121.358;2023-05-27T10:48:38;3.40;;;3.20;;
49784;SDS011;35679;38.732;-121.358;2023-05-27T10:51:31;3.30;;;3.20;;
49784;SDS011;35679;38.732;-121.358;2023-05-27T10:57:16;3.20;;;3.10;;
49784;SDS011;35679;38.732;-121.358;2023-05-27T11:00:06;3.70;;;3.50;;
49784;SDS011;35679;38.732;-121.358;2023-05-27T11:02:57;3.40;;;3.20;;
49784;SDS011;35679;38.732;-121.358;2023-05-27T11:05:47;4.15;;;3.33;;
49784;SDS011;35679;38.732;-121.358;2023-05-27T11:08:45;3.20;;;3.10;;
49784;SDS011;35679;38.732;-121.358;2023-05-27T11:11:35;3.38;;;3.17;;
49784;SDS011;35679;38.732;-121.358;2023-05-27T11:14:25;3.10;;;3.00;;
49784;SDS011;35679;38.732;-121.358;2023-05-27T11:17:15;3.47;;;3.00;;
49784;SDS011;35679;38.732;-121.358;2023-05-27T11:20:04;3.63;;;3.35;;
49784;SDS011;35679;38.732;-121.358;2023-05-27T11:22:58;3.95;;;3.75;;
49784;SDS011;35679;38.732;-121.358;2023-05-27T11:25:48;3.47;;;3.28;;
49784;SDS011;35679;38.732;-121.358;2023-05-27T11:28:37;4.55;;;4.05;;
49784;SDS011;35679;38.732;-121.358;2023-05-27T11:31:30;3.88;;;3.70;;
49784;SDS011;35679;38.732;-121.358;2023-05-27T11:34:20;3.78;;;3.47;;
49784;SDS011;35679;38.732;-121.358;2023-05-27T11:37:09;3.50;;;3.30;;
49784;SDS011;35679;38.732;-121.358;2023-05-27T11:39:59;4.13;;;3.90;;
49784;SDS011;35679;38.732;-121.358;2023-05-27T11:42:48;3.70;;;3.50;;
49784;SDS011;35679;38.732;-121.358;2023-05-27T11:45:38;3.88;;;3.67;;
49784;SDS011;35679;38.732;-121.358;2023-05-27T11:48:28;3.35;;;3.25;;
49784;SDS011;35679;38.732;-121.358;2023-05-27T11:51:17;3.67;;;3.40;;
49784;SDS011;35679;38.732;-121.358;2023-05-27T11:54:25;3.80;;;3.60;;
49784;SDS011;35679;38.732;-121.358;2023-05-27T11:57:15;3.47;;;3.28;;
49784;SDS011;35679;38.732;-121.358;2023-05-27T12:00:04;3.60;;;3.40;;
49784;SDS011;35679;38.732;-121.358;2023-05-27T12:02:56;3.33;;;3.13;;
49784;SDS011;35679;38.732;-121.358;2023-05-27T12:05:45;3.50;;;3.30;;
49784;SDS011;35679;38.732;-121.358;2023-05-27T12:08:35;3.85;;;3.50;;
49784;SDS011;35679;38.732;-121.358;2023-05-27T12:11:24;3.30;;;3.20;;
49784;SDS011;35679;38.732;-121.358;2023-05-27T12:14:14;3.28;;;3.10;;
49784;SDS011;35679;38.732;-121.358;2023-05-27T12:17:04;3.58;;;3.35;;
49784;SDS011;35679;38.732;-121.358;2023-05-27T12:19:53;3.45;;;3.25;;
49784;SDS011;35679;38.732;-121.358;2023-05-27T12:22:43;3.25;;;3.15;;
49784;SDS011;35679;38.732;-121.358;2023-05-27T12:25:32;3.20;;;3.00;;
49784;SDS011;35679;38.732;-121.358;2023-05-27T12:28:22;3.63;;;3.42;;
49784;SDS011;35679;38.732;-121.358;2023-05-27T12:31:11;3.80;;;3.50;;
49784;SDS011;35679;38.732;-121.358;2023-05-27T12:34:00;3.97;;;3.78;;
49784;SDS011;35679;38.732;-121.358;2023-05-27T12:36:49;3.50;;;3.30;;
49784;SDS011;35679;38.732;-121.358;2023-05-27T12:39:39;3.40;;;3.30;;
49784;SDS011;35679;38.732;-121.358;2023-05-27T12:42:28;3.45;;;3.30;;
49784;SDS011;35679;38.732;-121.358;2023-05-27T12:45:17;3.30;;;3.20;;
49784;SDS011;35679;38.732;-121.358;2023-05-27T12:48:11;3.50;;;3.30;;
49784;SDS011;35679;38.732;-121.358;2023-05-27T12:51:01;3.80;;;3.60;;
49784;SDS011;35679;38.732;-121.358;2023-05-27T12:53:51;3.65;;;3.40;;
49784;SDS011;35679;38.732;-121.358;2023-05-27T12:56:41;3.45;;;3.25;;
49784;SDS011;35679;38.732;-121.358;2023-05-27T12:59:30;3.63;;;3.45;;
49784;SDS011;35679;38.732;-121.358;2023-05-27T13:02:21;3.30;;;3.10;;
49784;SDS011;35679;38.732;-121.358;2023-05-27T13:05:10;2.88;;;2.78;;
49784;SDS011;35679;38.732;-121.358;2023-05-27T13:08:01;3.00;;;2.90;;
49784;SDS011;35679;38.732;-121.358;2023-05-27T13:10:52;3.17;;;2.97;;
49784;SDS011;35679;38.732;-121.358;2023-05-27T13:13:42;3.38;;;3.17;;
49784;SDS011;35679;38.732;-121.358;2023-05-27T13:16:31;3.45;;;3.25;;
49784;SDS011;35679;38.732;-121.358;2023-05-27T13:19:21;3.63;;;3.40;;
49784;SDS011;35679;38.732;-121.358;2023-05-27T13:25:03;3.10;;;3.00;;
49784;SDS011;35679;38.732;-121.358;2023-05-27T13:27:53;2.80;;;2.70;;
49784;SDS011;35679;38.732;-121.358;2023-05-27T13:30:44;3.10;;;2.90;;
49784;SDS011;35679;38.732;-121.358;2023-05-27T13:33:33;2.90;;;2.80;;
49784;SDS011;35679;38.732;-121.358;2023-05-27T13:36:22;3.40;;;3.20;;
49784;SDS011;35679;38.732;-121.358;2023-05-27T13:39:12;2.30;;;2.20;;
49784;SDS011;35679;38.732;-121.358;2023-05-27T13:42:02;3.00;;;2.90;;
49784;SDS011;35679;38.732;-121.358;2023-05-27T13:44:51;3.50;;;3.30;;
49784;SDS011;35679;38.732;-121.358;2023-05-27T13:47:41;3.30;;;3.00;;
49784;SDS011;35679;38.732;-121.358;2023-05-27T13:50:32;3.05;;;2.85;;
49784;SDS011;35679;38.732;-121.358;2023-05-27T13:53:23;3.10;;;2.90;;
49784;SDS011;35679;38.732;-121.358;2023-05-27T13:56:13;3.22;;;3.03;;
49784;SDS011;35679;38.732;-121.358;2023-05-27T13:59:02;3.35;;;3.05;;
49784;SDS011;35679;38.732;-121.358;2023-05-27T14:01:52;2.90;;;2.80;;
49784;SDS011;35679;38.732;-121.358;2023-05-27T14:04:43;2.97;;;2.80;;
49784;SDS011;35679;38.732;-121.358;2023-05-27T14:07:32;3.33;;;3.22;;
49784;SDS011;35679;38.732;-121.358;2023-05-27T14:10:21;2.80;;;2.70;;
49784;SDS011;35679;38.732;-121.358;2023-05-27T14:13:11;3.28;;;2.97;;
49784;SDS011;35679;38.732;-121.358;2023-05-27T14:16:00;3.50;;;3.30;;
49784;SDS011;35679;38.732;-121.358;2023-05-27T14:18:49;3.05;;;2.85;;
49784;SDS011;35679;38.732;-121.358;2023-05-27T14:21:39;2.70;;;2.60;;
49784;SDS011;35679;38.732;-121.358;2023-05-27T14:24:30;2.90;;;2.80;;
49784;SDS011;35679;38.732;-121.358;2023-05-27T14:27:20;2.90;;;2.80;;
49784;SDS011;35679;38.732;-121.358;2023-05-27T14:30:09;3.08;;;2.97;;
49784;SDS011;35679;38.732;-121.358;2023-05-27T14:32:59;2.83;;;2.72;;
49784;SDS011;35679;38.732;-121.358;2023-05-27T14:35:50;2.80;;;2.70;;
49784;SDS011;35679;38.732;-121.358;2023-05-27T14:38:39;3.22;;;3.00;;
49784;SDS011;35679;38.732;-121.358;2023-05-27T14:41:29;2.80;;;2.70;;
49784;SDS011;35679;38.732;-121.358;2023-05-27T14:44:18;2.83;;;2.72;;
49784;SDS011;35679;38.732;-121.358;2023-05-27T14:47:07;3.00;;;2.90;;
49784;SDS011;35679;38.732;-121.358;2023-05-27T14:50:01;3.13;;;2.97;;
49784;SDS011;35679;38.732;-121.358;2023-05-27T14:52:51;3.53;;;3.28;;
49784;SDS011;35679;38.732;-121.358;2023-05-27T14:55:41;3.30;;;3.17;;
49784;SDS011;35679;38.732;-121.358;2023-05-27T14:58:31;2.80;;;2.70;;
49784;SDS011;35679;38.732;-121.358;2023-05-27T15:01:22;3.05;;;2.90;;
49784;SDS011;35679;38.732;-121.358;2023-05-27T15:04:11;2.80;;;2.70;;
49784;SDS011;35679;38.732;-121.358;2023-05-27T15:07:01;2.95;;;2.75;;
49784;SDS011;35679;38.732;-121.358;2023-05-27T15:09:50;2.90;;;2.80;;
49784;SDS011;35679;38.732;-121.358;2023-05-27T15:12:40;3.05;;;2.58;;
49784;SDS011;35679;38.732;-121.358;2023-05-27T15:15:31;2.67;;;2.58;;
49784;SDS011;35679;38.732;-121.358;2023-05-27T15:18:20;2.80;;;2.63;;
49784;SDS011;35679;38.732;-121.358;2023-05-27T15:21:09;2.92;;;2.80;;
49784;SDS011;35679;38.732;-121.358;2023-05-27T15:24:02;2.90;;;2.80;;
49784;SDS011;35679;38.732;-121.358;2023-05-27T15:26:52;2.70;;;2.60;;
49784;SDS011;35679;38.732;-121.358;2023-05-27T15:29:43;2.88;;;2.63;;
49784;SDS011;35679;38.732;-121.358;2023-05-27T15:32:32;5.88;;;3.35;;
49784;SDS011;35679;38.732;-121.358;2023-05-27T15:35:22;4.90;;;3.25;;
49784;SDS011;35679;38.732;-121.358;2023-05-27T15:38:11;6.95;;;3.55;;
49784;SDS011;35679;38.732;-121.358;2023-05-27T15:41:01;5.53;;;3.25;;
49784;SDS011;35679;38.732;-121.358;2023-05-27T15:43:51;5.00;;;3.25;;
49784;SDS011;35679;38.732;-121.358;2023-05-27T15:46:40;8.10;;;4.05;;
49784;SDS011;35679;38.732;-121.358;2023-05-27T15:49:30;3.53;;;3.20;;
49784;SDS011;35679;38.732;-121.358;2023-05-27T15:52:19;5.00;;;3.20;;
49784;SDS011;35679;38.732;-121.358;2023-05-27T15:55:08;5.10;;;3.55;;
49784;SDS011;35679;38.732;-121.358;2023-05-27T15:57:58;5.18;;;3.50;;
49784;SDS011;35679;38.732;-121.358;2023-05-27T16:00:47;3.60;;;3.30;;
49784;SDS011;35679;38.732;-121.358;2023-05-27T16:03:37;3.72;;;3.40;;
49784;SDS011;35679;38.732;-121.358;2023-05-27T16:06:26;3.10;;;2.90;;
49784;SDS011;35679;38.732;-121.358;2023-05-27T16:09:15;4.18;;;3.78;;
49784;SDS011;35679;38.732;-121.358;2023-05-27T16:12:04;3.42;;;3.22;;
49784;SDS011;35679;38.732;-121.358;2023-05-27T16:14:55;4.15;;;3.30;;
49784;SDS011;35679;38.732;-121.358;2023-05-27T16:17:44;3.70;;;3.38;;
49784;SDS011;35679;38.732;-121.358;2023-05-27T16:20:34;3.38;;;3.00;;
49784;SDS011;35679;38.732;-121.358;2023-05-27T16:23:23;3.78;;;2.95;;
49784;SDS011;35679;38.732;-121.358;2023-05-27T16:26:13;3.35;;;3.15;;
49784;SDS011;35679;38.732;-121.358;2023-05-27T16:29:02;3.58;;;2.95;;
49784;SDS011;35679;38.732;-121.358;2023-05-27T16:31:52;3.08;;;2.88;;
49784;SDS011;35679;38.732;-121.358;2023-05-27T16:34:41;3.45;;;3.25;;
49784;SDS011;35679;38.732;-121.358;2023-05-27T16:37:33;3.33;;;3.05;;
49784;SDS011;35679;38.732;-121.358;2023-05-27T16:40:23;3.33;;;3.13;;